Time;durP1;ratioP1;P1;durP2;ratioP2;P2;SDS_P1;SDS_P2;PMS_P1;PMS_P2;Temp;Humidity;BMP_temperature;BMP_pressure;BME280_temperature;BME280_humidity;BME280_pressure;Samples;Min_cycle;Max_cycle;Signal;HPM_P1;HPM_P2
2021/07/13 00:01:01;;;;;;;10.15;5.95;;;;;;;17.77;100.00;100673.20;1743971;82;21122;-40
2021/07/13 00:03:28;;;;;;;23.90;8.20;;;;;;;17.73;100.00;100671.16;1743824;81;21510;-40
2021/07/13 00:05:57;;;;;;;12.15;6.12;;;;;;;17.69;100.00;100664.37;1744122;82;21487;-40
2021/07/13 00:08:23;;;;;;;15.63;6.45;;;;;;;17.65;100.00;100673.28;1744255;81;20905;-40
2021/07/13 00:10:49;;;;;;;12.45;6.17;;;;;;;17.61;100.00;100680.89;1743414;82;20968;-40
2021/07/13 00:13:17;;;;;;;22.17;6.30;;;;;;;17.59;100.00;100682.73;1735906;81;21474;-40
2021/07/13 00:15:46;;;;;;;12.75;6.22;;;;;;;17.56;100.00;100685.01;1735826;82;21396;-40
2021/07/13 00:18:14;;;;;;;12.82;6.10;;;;;;;17.53;100.00;100685.15;1735997;82;20913;-40
2021/07/13 00:20:41;;;;;;;19.32;6.80;;;;;;;17.47;100.00;100683.64;1735791;81;21004;-40
2021/07/13 00:23:07;;;;;;;32.38;7.40;;;;;;;17.45;100.00;100692.02;1735754;82;20929;-40
2021/07/13 00:25:34;;;;;;;37.13;9.28;;;;;;;17.49;100.00;100694.05;1735880;82;21487;-40
2021/07/13 00:28:01;;;;;;;27.60;7.85;;;;;;;17.53;100.00;100692.52;1736074;82;21746;-40
2021/07/13 00:30:29;;;;;;;28.90;8.45;;;;;;;17.58;100.00;100700.18;1715134;82;20976;-40
2021/07/13 00:32:56;;;;;;;26.20;8.55;;;;;;;17.58;100.00;100694.11;1736071;82;21546;-40
2021/07/13 00:35:22;;;;;;;25.15;7.78;;;;;;;17.57;100.00;100696.34;1735887;82;20976;-40
2021/07/13 00:37:50;;;;;;;31.75;8.55;;;;;;;17.58;100.00;100699.34;1736006;81;21119;-40
2021/07/13 00:40:18;;;;;;;17.48;7.58;;;;;;;17.59;100.00;100698.43;1735695;82;20968;-40
2021/07/13 00:42:47;;;;;;;27.13;8.70;;;;;;;17.61;100.00;100700.05;1736085;82;21048;-40
2021/07/13 00:45:13;;;;;;;33.65;8.15;;;;;;;17.64;100.00;100699.07;1735921;82;21250;-40
2021/07/13 00:47:40;;;;;;;41.02;9.13;;;;;;;17.64;100.00;100701.69;1735856;81;21000;-40
2021/07/13 00:50:09;;;;;;;31.25;10.78;;;;;;;17.64;100.00;100697.77;1735731;81;21171;-40
2021/07/13 00:52:35;;;;;;;23.40;7.78;;;;;;;17.64;100.00;100697.28;1736050;82;20925;-40
2021/07/13 00:55:04;;;;;;;21.40;8.85;;;;;;;17.67;100.00;100693.70;1735743;81;20842;-40
2021/07/13 00:57:30;;;;;;;25.32;8.75;;;;;;;17.73;100.00;100694.72;1736126;82;21020;-40
2021/07/13 00:59:58;;;;;;;24.67;8.68;;;;;;;17.84;100.00;100699.95;1735997;82;20928;-40
2021/07/13 01:02:25;;;;;;;38.73;10.23;;;;;;;17.86;100.00;100704.66;1736063;82;21130;-40
2021/07/13 01:04:58;;;;;;;30.27;9.10;;;;;;;17.84;100.00;100712.57;1735750;82;20976;-39
2021/07/13 01:07:50;;;;;;;33.78;8.68;;;;;;;17.81;100.00;100712.71;1735986;81;20949;-40
2021/07/13 01:10:43;;;;;;;20.65;7.90;;;;;;;17.78;100.00;100709.76;1735868;82;20902;-40
2021/07/13 01:14:00;;;;;;;21.00;8.20;;;;;;;17.71;100.00;100713.58;1748057;82;20912;-38
2021/07/13 01:16:37;;;;;;;29.80;7.25;;;;;;;17.64;100.00;100708.23;1749829;80;20956;-39
2021/07/13 01:20:02;;;;;;;26.35;8.48;;;;;;;17.53;100.00;100709.53;1749834;82;20976;-39
2021/07/13 01:22:34;;;;;;;24.70;7.87;;;;;;;17.46;100.00;100717.27;1750132;82;21580;-40
2021/07/13 01:25:27;;;;;;;16.70;7.15;;;;;;;17.36;100.00;100721.20;1749488;82;21493;-40
2021/07/13 01:27:59;;;;;;;24.70;7.62;;;;;;;17.32;100.00;100717.03;1750015;82;21046;-40
2021/07/13 01:30:38;;;;;;;21.00;8.20;;;;;;;17.27;100.00;100716.34;1722023;82;21749;-39
2021/07/13 01:33:24;;;;;;;21.75;7.75;;;;;;;17.22;100.00;100717.39;1749908;82;20936;-39
2021/07/13 01:35:57;;;;;;;;;;;;;;;17.21;100.00;100721.41;1752427;80;21473;-39
2021/07/13 01:38:26;;;;;;;22.22;7.35;;;;;;;17.17;100.00;100719.80;1722496;82;20413;-39
2021/07/13 01:40:59;;;;;;;30.95;7.53;;;;;;;17.13;100.00;100720.85;1722558;82;20892;-39
2021/07/13 01:43:25;;;;;;;37.30;8.53;;;;;;;17.07;100.00;100716.28;1749871;82;21194;-40
2021/07/13 01:45:54;;;;;;;35.43;9.38;;;;;;;17.04;100.00;100719.02;1749778;82;21557;-39
2021/07/13 01:48:20;;;;;;;41.92;9.23;;;;;;;17.02;100.00;100719.98;1749954;82;21458;-39
2021/07/13 01:50:50;;;;;;;37.38;8.25;;;;;;;17.01;100.00;100722.21;1749845;82;21327;-39
2021/07/13 01:53:17;;;;;;;31.40;7.55;;;;;;;16.98;100.00;100721.00;1749880;80;20893;-39
2021/07/13 01:55:44;;;;;;;26.62;7.67;;;;;;;16.93;100.00;100718.59;1749995;82;21097;-39
2021/07/13 01:58:11;;;;;;;36.68;7.80;;;;;;;16.90;100.00;100712.16;1749794;82;21015;-39
2021/07/13 02:00:38;;;;;;;37.60;7.90;;;;;;;16.87;100.00;100711.84;1749886;82;20861;-39
2021/07/13 02:03:04;;;;;;;32.13;8.05;;;;;;;16.86;100.00;100715.37;1714808;82;20999;-39
2021/07/13 02:05:31;;;;;;;59.18;13.38;;;;;;;16.85;100.00;100719.34;1750041;82;21395;-39
2021/07/13 02:08:02;;;;;;;45.80;11.70;;;;;;;16.86;100.00;100714.51;1722725;82;21129;-39
2021/07/13 02:10:29;;;;;;;34.23;10.75;;;;;;;16.85;100.00;100711.06;1749900;82;20929;-39
2021/07/13 02:12:56;;;;;;;27.95;9.98;;;;;;;16.85;100.00;100712.37;1727564;81;21007;-39
2021/07/13 02:15:23;;;;;;;30.27;10.20;;;;;;;16.84;100.00;100719.82;1757663;81;20948;-39
2021/07/13 02:17:50;;;;;;;33.15;11.15;;;;;;;16.83;100.00;100727.27;1757787;81;20983;-39
2021/07/13 02:20:20;;;;;;;29.18;11.48;;;;;;;16.83;100.00;100729.02;1729877;81;21175;-40
2021/07/13 02:22:47;;;;;;;29.67;11.53;;;;;;;16.84;100.00;100725.48;1757905;81;20932;-40
2021/07/13 02:25:14;;;;;;;26.02;9.88;;;;;;;16.86;100.00;100725.83;1757534;81;20924;-39
2021/07/13 02:28:16;;;;;;;20.65;9.10;;;;;;;16.91;100.00;100721.70;1757742;81;20901;-39
2021/07/13 02:30:47;;;;;;;19.67;8.18;;;;;;;16.95;100.00;100729.37;1757572;81;21473;-39
2021/07/13 02:33:25;;;;;;;17.80;10.30;;;;;;;17.00;100.00;100733.58;1757731;81;21015;-39
2021/07/13 02:35:58;;;;;;;19.85;8.38;;;;;;;17.12;100.00;100744.86;1757498;80;20983;-39
2021/07/13 02:38:25;;;;;;;17.98;8.23;;;;;;;17.20;100.00;100744.55;1758065;80;20995;-39
2021/07/13 02:40:52;;;;;;;22.13;8.35;;;;;;;17.25;100.00;100742.59;1757596;81;21568;-39
2021/07/13 02:43:20;;;;;;;17.15;7.47;;;;;;;17.30;100.00;100746.30;1757757;81;21253;-39
2021/07/13 02:45:51;;;;;;;10.15;7.20;;;;;;;17.34;100.00;100753.96;1757617;81;20964;-40
2021/07/13 02:48:18;;;;;;;18.73;8.13;;;;;;;17.37;100.00;100764.77;1757894;81;20992;-39
2021/07/13 02:50:44;;;;;;;14.30;7.80;;;;;;;17.41;100.00;100767.64;1729732;81;20963;-40
2021/07/13 02:53:11;;;;;;;19.70;8.13;;;;;;;17.45;100.00;100761.36;1757956;81;20972;-40
2021/07/13 02:55:39;;;;;;;26.95;8.13;;;;;;;17.48;100.00;100759.92;1757653;81;20963;-40
2021/07/13 02:58:06;;;;;;;15.93;8.45;;;;;;;17.53;100.00;100758.42;1758024;81;21462;-40
2021/07/13 03:00:33;;;;;;;13.58;7.15;;;;;;;17.59;100.00;100765.16;1757616;81;20869;-40
2021/07/13 03:02:59;;;;;;;18.70;8.45;;;;;;;17.64;100.00;100768.43;1757994;81;20889;-40
2021/07/13 03:05:26;;;;;;;16.85;8.40;;;;;;;17.68;100.00;100773.92;1757611;81;21015;-40
2021/07/13 03:07:53;;;;;;;20.57;8.65;;;;;;;17.72;100.00;100770.25;1757712;81;20983;-40
2021/07/13 03:10:25;;;;;;;16.12;7.50;;;;;;;17.78;100.00;100776.52;1757764;81;21513;-40
2021/07/13 03:12:52;;;;;;;12.88;8.43;;;;;;;17.86;100.00;100767.50;1746808;81;20960;-40
2021/07/13 03:15:23;;;;;;;14.80;8.38;;;;;;;17.94;100.00;100761.45;1714934;82;21383;-40
2021/07/13 03:17:52;;;;;;;12.43;7.72;;;;;;;18.02;100.00;100760.67;1736049;81;20957;-40
2021/07/13 03:20:21;;;;;;;15.58;9.88;;;;;;;18.08;100.00;100752.56;1739517;82;20980;-40
2021/07/13 03:22:48;;;;;;;16.60;10.30;;;;;;;18.16;100.00;100753.97;1739632;82;21156;-40
2021/07/13 03:25:31;;;;;;;14.70;9.95;;;;;;;18.19;100.00;100754.70;1735935;82;20922;-40
2021/07/13 03:27:58;;;;;;;12.10;10.10;;;;;;;18.24;100.00;100757.08;1733133;82;20882;-40
2021/07/13 03:30:25;;;;;;;12.47;9.70;;;;;;;18.30;100.00;100758.10;1714853;82;21008;-40
2021/07/13 03:32:52;;;;;;;13.93;10.88;;;;;;;18.37;100.00;100759.55;1739644;81;20917;-40
2021/07/13 03:35:22;;;;;;;22.10;12.23;;;;;;;18.47;100.00;100753.86;1735862;82;21137;-40
2021/07/13 03:37:50;;;;;;;14.63;10.82;;;;;;;18.55;100.00;100751.72;1735977;82;20992;-40
2021/07/13 03:40:21;;;;;;;15.30;11.43;;;;;;;18.63;100.00;100751.36;1736207;82;20996;-40
2021/07/13 03:42:48;;;;;;;11.93;10.50;;;;;;;18.71;100.00;100754.48;1736011;81;20996;-40
2021/07/13 03:45:18;;;;;;;16.87;11.68;;;;;;;18.74;100.00;100757.41;1735949;81;20842;-40
2021/07/13 03:47:52;;;;;;;13.32;11.15;;;;;;;18.77;100.00;100752.01;1735793;81;21095;-40
2021/07/13 03:50:22;;;;;;;12.35;10.48;;;;;;;18.84;100.00;100756.50;1735963;82;26586;-40
2021/07/13 03:52:49;;;;;;;11.95;9.80;;;;;;;19.01;100.00;100742.59;1714875;82;20988;-40
2021/07/13 03:55:15;;;;;;;10.68;8.05;;;;;;;19.28;100.00;100739.51;1736095;82;20933;-40
2021/07/13 03:57:42;;;;;;;14.15;9.18;;;;;;;19.53;100.00;100741.27;1735860;82;21483;-40
2021/07/13 04:00:17;;;;;;;11.65;8.90;;;;;;;19.79;100.00;100742.98;1736033;82;21935;-40
2021/07/13 04:02:44;;;;;;;11.68;8.10;;;;;;;20.04;100.00;100746.97;1735849;82;21601;-40
2021/07/13 04:05:12;;;;;;;14.45;8.13;;;;;;;20.36;100.00;100743.08;1735794;82;21410;-40
2021/07/13 04:07:40;;;;;;;13.72;6.90;;;;;;;20.60;100.00;100748.36;1735898;82;21007;-41
2021/07/13 04:10:09;;;;;;;10.58;6.60;;;;;;;20.85;100.00;100749.63;1735971;82;21019;-40
2021/07/13 04:12:35;;;;;;;9.65;6.53;;;;;;;21.04;100.00;100744.14;1735634;82;21063;-40
2021/07/13 04:15:03;;;;;;;14.58;6.40;;;;;;;21.27;100.00;100748.53;1735868;82;20973;-40
2021/07/13 04:17:30;;;;;;;6.50;5.62;;;;;;;21.47;100.00;100753.47;1735801;82;20925;-40
2021/07/13 04:19:56;;;;;;;6.85;5.35;;;;;;;21.68;100.00;100755.79;1735917;81;20945;-40
2021/07/13 04:22:24;;;;;;;7.20;6.53;;;;;;;21.84;100.00;100757.47;1735902;82;20875;-40
2021/07/13 04:24:51;;;;;;;8.30;6.30;;;;;;;22.02;100.00;100757.66;1735909;82;21080;-40
2021/07/13 04:27:18;;;;;;;9.95;5.80;;;;;;;22.19;100.00;100761.05;1735768;81;21407;-40
2021/07/13 04:29:44;;;;;;;6.28;5.70;;;;;;;22.31;100.00;100758.10;1735957;81;21462;-40
2021/07/13 04:32:12;;;;;;;6.37;5.87;;;;;;;22.52;98.40;100763.82;1735697;82;20937;-40
2021/07/13 04:34:38;;;;;;;6.05;5.45;;;;;;;22.67;95.72;100761.98;1735949;82;20992;-40
2021/07/13 04:37:06;;;;;;;5.62;5.00;;;;;;;22.85;92.60;100763.89;1736151;82;20882;-39
2021/07/13 04:39:33;;;;;;;11.12;5.65;;;;;;;23.02;90.42;100766.76;1714643;82;20968;-38
2021/07/13 04:41:59;;;;;;;6.85;5.20;;;;;;;23.16;87.30;100772.44;1735934;82;21372;-39
2021/07/13 04:44:26;;;;;;;7.53;5.70;;;;;;;23.32;86.16;100769.64;1735624;81;20988;-39
2021/07/13 04:46:54;;;;;;;5.45;4.95;;;;;;;23.48;85.32;100773.41;1735986;82;20929;-39
2021/07/13 04:49:22;;;;;;;6.58;4.72;;;;;;;23.67;84.22;100772.16;1735968;82;21909;-39
2021/07/13 04:51:49;;;;;;;5.62;5.00;;;;;;;23.89;82.98;100775.45;1735693;81;20996;-39
2021/07/13 04:54:16;;;;;;;5.62;4.50;;;;;;;24.11;81.04;100773.48;1735874;82;20953;-39
2021/07/13 04:56:43;;;;;;;5.22;4.83;;;;;;;24.27;80.03;100774.22;1735805;82;20925;-39
2021/07/13 04:59:09;;;;;;;9.18;4.22;;;;;;;24.37;79.59;100781.36;1735851;82;21387;-39
2021/07/13 05:01:35;;;;;;;5.00;4.50;;;;;;;24.54;79.43;100785.45;1735840;82;21844;-39
2021/07/13 05:04:03;;;;;;;10.35;4.30;;;;;;;24.70;77.96;100786.14;1735917;82;21482;-39
2021/07/13 05:06:30;;;;;;;8.20;4.33;;;;;;;24.87;77.53;100789.72;1714705;82;21004;-39
2021/07/13 05:08:56;;;;;;;7.28;4.33;;;;;;;25.03;74.57;100789.45;1736003;82;21510;-39
2021/07/13 05:11:25;;;;;;;9.70;4.50;;;;;;;25.14;75.07;100797.92;1735878;82;20907;-39
2021/07/13 05:13:51;;;;;;;7.03;4.33;;;;;;;25.28;75.42;100796.02;1735819;81;21758;-39
2021/07/13 05:16:20;;;;;;;6.47;4.50;;;;;;;25.42;73.57;100795.83;1735667;81;21487;-39
2021/07/13 05:18:46;;;;;;;5.65;4.15;;;;;;;25.56;73.07;100799.24;1736021;81;21443;-39
2021/07/13 05:21:15;;;;;;;9.13;4.17;;;;;;;25.61;71.99;100803.23;1735844;82;21582;-39
2021/07/13 05:23:43;;;;;;;6.15;4.33;;;;;;;25.73;72.11;100804.09;1735770;82;21463;-39
2021/07/13 05:26:10;;;;;;;7.00;4.22;;;;;;;25.85;71.25;100804.95;1714705;82;21897;-39
2021/07/13 05:28:37;;;;;;;10.38;4.45;;;;;;;25.76;71.56;100806.50;1714725;82;21005;-39
2021/07/13 05:31:03;;;;;;;6.28;4.62;;;;;;;25.77;71.36;100802.89;1735692;82;20925;-40
2021/07/13 05:33:29;;;;;;;5.30;4.33;;;;;;;25.91;70.01;100810.27;1735744;82;21023;-40
2021/07/13 05:35:56;;;;;;;6.10;4.58;;;;;;;26.10;70.73;100810.48;1735863;82;20992;-40
2021/07/13 05:38:23;;;;;;;5.50;4.37;;;;;;;26.35;68.89;100812.55;1735964;82;21769;-39
2021/07/13 05:40:50;;;;;;;9.35;4.53;;;;;;;26.52;67.47;100811.68;1735609;82;20991;-40
2021/07/13 05:43:16;;;;;;;5.58;4.33;;;;;;;26.61;68.36;100812.25;1735711;82;21503;-40
2021/07/13 05:45:45;;;;;;;8.00;4.72;;;;;;;26.64;68.29;100813.33;1735710;81;20933;-39
2021/07/13 05:48:11;;;;;;;9.30;4.50;;;;;;;26.60;67.20;100817.70;1739301;82;20893;-40
2021/07/13 05:50:38;;;;;;;6.55;4.67;;;;;;;26.66;68.10;100827.34;1735802;82;21192;-40
2021/07/13 05:53:05;;;;;;;7.08;5.25;;;;;;;26.83;66.70;100818.00;1714768;82;20929;-40
2021/07/13 05:55:32;;;;;;;5.00;4.62;;;;;;;27.00;66.14;100825.07;1735699;82;20874;-39
2021/07/13 05:57:59;;;;;;;6.60;5.08;;;;;;;27.13;64.47;100820.09;1735963;81;20941;-39
2021/07/13 06:00:25;;;;;;;7.22;4.78;;;;;;;27.19;64.56;100822.22;1735748;82;20913;-39
2021/07/13 06:02:52;;;;;;;9.08;4.67;;;;;;;27.30;64.49;100825.31;1735629;82;21059;-40
2021/07/13 06:05:19;;;;;;;9.78;4.67;;;;;;;27.24;61.37;100825.33;1735704;82;21518;-40
2021/07/13 06:07:49;;;;;;;8.75;4.37;;;;;;;27.16;62.94;100820.69;1735728;82;20977;-39
2021/07/13 06:10:18;;;;;;;4.90;4.40;;;;;;;27.26;64.55;100822.06;1735715;82;20929;-39
2021/07/13 06:12:46;;;;;;;6.12;4.85;;;;;;;27.25;63.47;100816.39;1736874;82;20894;-39
2021/07/13 06:15:15;;;;;;;8.55;4.37;;;;;;;27.30;64.05;100824.84;1749827;82;20866;-39
2021/07/13 06:17:43;;;;;;;10.75;4.33;;;;;;;27.38;63.93;100817.53;1749729;82;20980;-39
2021/07/13 06:20:11;;;;;;;7.17;4.85;;;;;;;27.44;62.21;100821.48;1722182;82;21447;-39
2021/07/13 06:22:38;;;;;;;5.45;5.00;;;;;;;27.60;64.26;100823.71;1697901;82;20932;-40
2021/07/13 06:25:06;;;;;;;5.58;4.55;;;;;;;27.78;63.46;100825.28;1749769;82;20944;-40
2021/07/13 06:29:08;;;;;;;5.62;5.05;;;;;;;27.96;61.67;100832.17;1798177;79;22709;-39
2021/07/13 06:31:35;;;;;;;8.10;5.00;;;;;;;27.98;61.45;100830.22;1758143;80;21307;-39
2021/07/13 06:34:01;;;;;;;9.63;5.22;;;;;;;28.01;60.62;100825.10;1758182;81;21486;-39
2021/07/13 06:36:27;;;;;;;5.78;5.12;;;;;;;27.93;61.05;100822.63;1758012;81;20877;-39
2021/07/13 06:38:54;;;;;;;5.65;4.95;;;;;;;27.90;61.09;100822.05;1758234;81;20999;-39
2021/07/13 06:41:20;;;;;;;11.35;5.17;;;;;;;27.85;61.84;100814.95;1758043;81;20987;-40
2021/07/13 06:43:47;;;;;;;7.70;5.03;;;;;;;27.89;62.03;100808.39;1758009;81;21019;-40
2021/07/13 06:46:13;;;;;;;14.75;5.22;;;;;;;27.92;61.21;100806.83;1758032;81;21227;-40
2021/07/13 06:48:39;;;;;;;6.80;5.03;;;;;;;27.93;61.64;100812.50;1757884;81;21022;-39
2021/07/13 06:51:06;;;;;;;8.35;4.92;;;;;;;27.98;61.10;100808.95;1758113;81;20892;-40
2021/07/13 06:53:32;;;;;;;6.08;5.00;;;;;;;28.01;60.85;100813.99;1758309;81;20980;-39
2021/07/13 06:55:59;;;;;;;5.83;5.33;;;;;;;28.13;61.27;100808.56;1757964;81;20968;-40
2021/07/13 06:58:25;;;;;;;5.75;5.20;;;;;;;28.14;60.75;100808.44;1757763;81;21465;-40
2021/07/13 07:00:52;;;;;;;6.33;5.72;;;;;;;28.11;60.43;100810.87;1757913;81;20959;-40
2021/07/13 07:03:18;;;;;;;10.55;5.37;;;;;;;28.23;60.36;100806.83;1757763;81;20991;-39
2021/07/13 07:05:45;;;;;;;6.10;5.30;;;;;;;28.30;60.69;100809.79;1749649;81;21030;-40
2021/07/13 07:08:12;;;;;;;5.85;5.12;;;;;;;28.39;59.82;100804.46;1749641;80;20932;-43
2021/07/13 07:10:39;;;;;;;7.20;6.22;;;;;;;28.49;59.53;100798.34;1749677;81;21147;-39
2021/07/13 07:13:06;;;;;;;6.25;5.62;;;;;;;28.54;59.47;100797.43;1749609;82;20983;-40
2021/07/13 07:15:32;;;;;;;9.98;5.25;;;;;;;28.51;59.03;100790.55;1749906;82;20940;-40
2021/07/13 07:17:59;;;;;;;8.43;5.33;;;;;;;28.50;58.81;100792.86;1749416;82;20940;-39
2021/07/13 07:20:28;;;;;;;5.92;5.15;;;;;;;28.46;59.63;100794.62;1749519;81;20921;-39
2021/07/13 07:22:55;;;;;;;6.37;5.00;;;;;;;28.46;60.34;100791.97;1749703;82;21135;-39
2021/07/13 07:25:22;;;;;;;7.53;4.87;;;;;;;28.47;60.37;100791.80;1749543;81;20968;-40
2021/07/13 07:27:50;;;;;;;6.55;5.22;;;;;;;28.67;60.84;100791.36;1745169;80;20981;-39
2021/07/13 07:30:18;;;;;;;6.42;4.83;;;;;;;28.83;59.55;100784.66;1715408;82;20906;-39
2021/07/13 07:32:45;;;;;;;9.58;5.50;;;;;;;29.05;58.59;100790.68;1736428;82;21016;-39
2021/07/13 07:35:12;;;;;;;4.87;4.47;;;;;;;29.05;58.02;100784.02;1736381;82;21160;-39
2021/07/13 07:37:40;;;;;;;5.47;4.95;;;;;;;29.30;59.90;100794.56;1736596;81;20921;-39
2021/07/13 07:40:11;;;;;;;5.65;5.22;;;;;;;29.53;57.69;100791.12;1736168;82;20893;-40
2021/07/13 07:42:37;;;;;;;5.55;4.33;;;;;;;29.76;55.73;100793.44;1735994;82;20925;-39
2021/07/13 07:45:06;;;;;;;9.38;5.05;;;;;;;30.00;55.66;100795.22;1715107;82;21586;-39
2021/07/13 07:47:32;;;;;;;7.05;5.00;;;;;;;30.21;55.60;100795.02;1736172;82;21155;-39
2021/07/13 07:49:59;;;;;;;5.03;4.53;;;;;;;30.44;54.14;100802.58;1735771;82;20929;-39
2021/07/13 07:52:25;;;;;;;9.98;5.10;;;;;;;30.61;52.99;100798.31;1736054;81;20933;-40
2021/07/13 07:54:52;;;;;;;5.37;4.33;;;;;;;30.68;53.57;100800.70;1735716;81;20941;-39
2021/07/13 07:57:18;;;;;;;6.37;5.15;;;;;;;30.66;51.66;100800.84;1735939;82;20925;-39
2021/07/13 07:59:46;;;;;;;9.70;4.53;;;;;;;30.62;52.29;100802.66;1735938;82;20933;-40
2021/07/13 08:02:14;;;;;;;10.30;4.92;;;;;;;30.37;53.54;100804.52;1735767;82;20976;-39
2021/07/13 08:04:41;;;;;;;5.78;4.92;;;;;;;30.28;53.73;100805.44;1714988;82;20941;-40
2021/07/13 08:07:07;;;;;;;8.13;5.25;;;;;;;30.29;54.92;100804.45;1735974;82;20945;-39
2021/07/13 08:09:34;;;;;;;7.03;5.10;;;;;;;30.27;55.04;100811.77;1735778;81;21483;-39
2021/07/13 08:12:02;;;;;;;16.40;5.47;;;;;;;30.31;54.38;100811.80;1735880;82;21460;-39
2021/07/13 08:14:29;;;;;;;7.60;5.22;;;;;;;30.44;54.65;100818.12;1736051;82;21523;-40
2021/07/13 08:16:57;;;;;;;7.85;5.33;;;;;;;30.47;54.79;100811.14;1735599;82;20933;-39
2021/07/13 08:19:24;;;;;;;9.00;5.37;;;;;;;30.47;56.46;100817.00;1735923;81;20968;-39
2021/07/13 08:21:50;;;;;;;5.33;4.70;;;;;;;30.62;56.20;100808.00;1735969;81;20988;-40
2021/07/13 08:24:18;;;;;;;6.45;4.87;;;;;;;30.86;57.00;100807.89;1736075;82;21927;-40
2021/07/13 08:26:46;;;;;;;5.37;4.70;;;;;;;31.04;53.31;100807.36;1735967;82;20922;-39
2021/07/13 08:29:13;;;;;;;7.25;4.78;;;;;;;31.15;51.45;100803.59;1714755;82;20980;-40
2021/07/13 08:31:41;;;;;;;11.55;5.17;;;;;;;31.22;53.50;100809.20;1735848;82;20996;-40
2021/07/13 08:34:07;;;;;;;11.12;5.08;;;;;;;31.41;53.65;100806.82;1735892;82;20917;-38
2021/07/13 08:36:34;;;;;;;8.30;4.65;;;;;;;31.58;49.46;100805.11;1736028;82;21132;-40
2021/07/13 08:39:00;;;;;;;10.15;5.70;;;;;;;31.65;50.05;100803.47;1736090;82;20906;-39
2021/07/13 08:41:30;;;;;;;13.10;5.50;;;;;;;31.61;48.75;100810.14;1735852;82;21463;-40
2021/07/13 08:43:57;;;;;;;9.68;5.28;;;;;;;31.45;48.28;100807.36;1735932;82;20960;-40
2021/07/13 08:46:23;;;;;;;20.17;5.10;;;;;;;31.24;49.16;100800.05;1735730;81;21490;-40
2021/07/13 08:48:51;;;;;;;10.68;4.53;;;;;;;31.21;51.90;100802.18;1736009;82;21767;-40
2021/07/13 08:51:20;;;;;;;6.90;4.47;;;;;;;31.33;49.42;100796.94;1739454;82;20941;-39
2021/07/13 08:53:47;;;;;;;8.80;4.92;;;;;;;31.23;47.76;100794.84;1735744;82;21504;-40
2021/07/13 08:56:14;;;;;;;14.58;4.75;;;;;;;31.34;50.93;100796.42;1736117;82;21019;-39
2021/07/13 08:58:41;;;;;;;8.75;4.40;;;;;;;31.40;47.10;100799.80;1735704;81;21596;-40
2021/07/13 09:01:07;;;;;;;6.10;4.62;;;;;;;31.44;49.97;100793.13;1735685;81;22033;-41
2021/07/13 09:03:34;;;;;;;5.35;4.17;;;;;;;31.69;50.41;100797.28;1735695;82;21536;-41
2021/07/13 09:06:01;;;;;;;4.30;3.90;;;;;;;31.91;49.17;100795.94;1736010;82;21430;-41
2021/07/13 09:08:32;;;;;;;9.70;4.10;;;;;;;31.94;48.07;100796.09;1735676;82;20941;-39
2021/07/13 09:11:21;;;;;;;8.13;4.12;;;;;;;32.04;46.63;100795.48;1735919;82;20969;-39
2021/07/13 09:13:56;;;;;;;4.37;3.98;;;;;;;32.28;47.99;100792.55;1735790;81;21024;-39
2021/07/13 09:16:30;;;;;;;5.80;4.33;;;;;;;32.57;47.66;100781.92;1735805;82;21458;-40
2021/07/13 09:18:58;;;;;;;5.30;4.67;;;;;;;32.64;48.17;100784.27;1735929;82;21640;-40
2021/07/13 09:21:34;;;;;;;7.40;4.75;;;;;;;32.66;46.98;100787.61;1735713;82;20933;-40
2021/07/13 09:24:16;;;;;;;5.65;4.15;;;;;;;32.71;47.35;100794.30;1735832;82;20988;-40
2021/07/13 09:26:53;;;;;;;7.67;4.22;;;;;;;32.85;45.37;100797.67;1735857;82;21151;-40
2021/07/13 09:29:42;;;;;;;7.12;4.50;;;;;;;32.98;45.25;100792.36;1745753;81;21442;-40
2021/07/13 09:32:37;;;;;;;7.67;4.65;;;;;;;33.11;45.49;100794.02;1749928;82;20932;-40
2021/07/13 09:35:13;;;;;;;10.68;4.08;;;;;;;33.20;45.98;100785.47;1744208;82;20893;-40
2021/07/13 09:37:47;;;;;;;9.23;4.75;;;;;;;33.14;47.25;100792.85;1749895;80;21368;-40
2021/07/13 09:40:16;;;;;;;4.95;4.53;;;;;;;33.07;44.98;100795.36;1749418;82;21156;-39
2021/07/13 09:42:50;;;;;;;5.28;3.85;;;;;;;32.96;46.23;100789.31;1749943;82;20983;-39
2021/07/13 09:45:28;;;;;;;6.65;4.20;;;;;;;33.10;46.73;100795.02;1749690;81;20885;-39
2021/07/13 09:47:59;;;;;;;7.42;4.47;;;;;;;33.20;46.26;100792.17;1749886;81;20896;-39
2021/07/13 09:50:43;;;;;;;5.28;4.60;;;;;;;33.45;43.79;100787.61;1747731;82;20881;-40
2021/07/13 09:53:15;;;;;;;6.97;4.85;;;;;;;33.61;42.58;100788.59;1750078;82;21148;-41
2021/07/13 09:55:42;;;;;;;5.47;4.22;;;;;;;33.70;43.46;100790.22;1721731;82;20952;-40
2021/07/13 09:58:13;;;;;;;7.22;4.58;;;;;;;33.67;42.13;100786.55;1749703;82;20972;-40
2021/07/13 10:00:47;;;;;;;7.33;4.30;;;;;;;33.29;43.10;100790.31;1721994;82;20940;-40
2021/07/13 10:03:16;;;;;;;8.33;5.00;;;;;;;33.12;43.28;100790.33;1750021;80;20976;-40
2021/07/13 10:05:45;;;;;;;4.95;4.42;;;;;;;33.14;44.61;100782.95;1749653;82;21773;-41
2021/07/13 10:08:13;;;;;;;6.40;4.22;;;;;;;33.25;43.35;100777.73;1749867;82;21031;-40
2021/07/13 10:10:44;;;;;;;4.62;4.22;;;;;;;33.12;42.43;100783.63;1722155;82;20940;-40
2021/07/13 10:13:12;;;;;;;5.83;4.10;;;;;;;33.18;42.78;100778.09;1749886;82;21584;-40
2021/07/13 10:15:40;;;;;;;13.70;4.15;;;;;;;33.25;42.18;100775.91;1749679;82;20924;-39
2021/07/13 10:18:08;;;;;;;7.83;4.60;;;;;;;33.33;43.54;100782.26;1749905;82;21096;-39
2021/07/13 10:20:35;;;;;;;5.00;4.50;;;;;;;33.29;42.37;100779.59;1739125;82;21019;-40
2021/07/13 10:23:05;;;;;;;5.65;4.33;;;;;;;32.84;42.07;100783.95;1750033;82;20980;-40
2021/07/13 10:25:37;;;;;;;14.85;4.50;;;;;;;32.53;45.12;100790.78;1750172;82;21362;-39
2021/07/13 10:28:04;;;;;;;5.30;4.40;;;;;;;32.51;43.17;100790.63;1748900;81;20983;-40
2021/07/13 10:30:34;;;;;;;4.78;4.37;;;;;;;32.61;44.76;100789.95;1749697;82;21124;-39
2021/07/13 10:33:01;;;;;;;5.53;4.40;;;;;;;32.45;42.94;100787.24;1749680;82;21011;-40
2021/07/13 10:35:31;;;;;;;6.65;4.42;;;;;;;32.27;44.52;100793.55;1722254;82;20921;-40
2021/07/13 10:38:21;;;;;;;7.03;4.42;;;;;;;32.42;44.47;100787.58;1749671;81;21275;-40
2021/07/13 10:40:47;;;;;;;6.55;4.28;;;;;;;32.65;43.71;100787.27;1749604;82;21482;-40
2021/07/13 10:43:22;;;;;;;4.92;3.85;;;;;;;32.84;42.38;100789.30;1749902;80;21939;-40
2021/07/13 10:46:08;;;;;;;14.43;4.60;;;;;;;32.98;43.29;100785.14;1749515;80;22300;-40
2021/07/13 10:48:37;;;;;;;5.17;4.20;;;;;;;33.41;41.73;100780.89;1749453;82;20976;-40
2021/07/13 10:51:11;;;;;;;8.58;4.42;;;;;;;33.69;40.33;100784.52;1749849;80;20968;-40
2021/07/13 10:53:40;;;;;;;5.37;4.05;;;;;;;33.60;40.72;100777.52;1748377;82;20908;-40
2021/07/13 10:56:14;;;;;;;4.55;4.17;;;;;;;33.66;43.00;100785.73;1749131;82;21128;-40
2021/07/13 10:58:44;;;;;;;6.30;5.03;;;;;;;33.68;40.86;100775.66;1750045;82;21030;-41
2021/07/13 11:01:40;;;;;;;5.72;4.10;;;;;;;33.72;39.11;100776.64;1749619;82;21019;-41
2021/07/13 11:04:07;;;;;;;12.10;4.50;;;;;;;33.60;40.64;100774.35;1747836;82;20932;-40
2021/07/13 11:06:47;;;;;;;4.28;3.87;;;;;;;33.59;40.61;100773.17;1749691;82;20889;-40
2021/07/13 11:09:21;;;;;;;5.30;4.00;;;;;;;33.70;40.60;100767.94;1750009;82;21123;-40
2021/07/13 11:11:50;;;;;;;7.97;4.28;;;;;;;33.74;42.50;100770.11;1749771;82;21530;-40
2021/07/13 11:14:17;;;;;;;4.42;4.10;;;;;;;34.03;39.35;100765.98;1750097;80;21003;-40
2021/07/13 11:16:49;;;;;;;9.28;4.08;;;;;;;34.17;40.24;100770.25;1750059;82;21086;-40
2021/07/13 11:19:17;;;;;;;40.52;5.62;;;;;;;34.34;38.55;100768.30;1750165;82;20976;-40
2021/07/13 11:21:47;;;;;;;6.15;4.25;;;;;;;34.52;40.34;100767.53;1722646;82;21134;-40
2021/07/13 11:24:20;;;;;;;4.80;4.10;;;;;;;34.56;39.16;100774.73;1750023;82;20936;-40
2021/07/13 11:26:55;;;;;;;4.10;3.80;;;;;;;34.51;37.09;100771.76;1721916;82;20889;-40
2021/07/13 11:29:26;;;;;;;7.20;4.03;;;;;;;34.12;38.23;100765.43;1743936;81;20905;-39
2021/07/13 11:31:57;;;;;;;7.87;4.35;;;;;;;33.81;39.50;100765.71;1735818;81;20893;-39